• Join FlightAware (Why Join?)
  • Login
  • US Flag 
06:21PM EST


 

Airport Tracker/Info


-or-


 

Live Flight TrackerFlight Track Log ✈ N612FE ✈ 12-Apr-2013 ✈ CYYZ - KMEM

Flight Track Log - Related Links

Times and Time Zones

All times are in EDT time to prevent confusion due to time zone crossing. See the N612FE flight status page for this flight to view local times or setup timezone preferences in your user account.

Time Position Orientation Groundspeed Altitude Reporting Facility
EDT Latitude Longitude Course Direction KTS MPH feet Rate Location/Type
10:34PM 43.6780 -79.6590 47° Northeast 154 177 1,700  Level FlightAware
10:35PM 43.6630 -79.6830 229° Southwest 187 215 2,900 2,160 Climbing FlightAware
10:35PM 43.6450 -79.7140 231° Southwest 227 261 3,900 2,160 Climbing FlightAware
10:35PM 43.6350 -79.7470 247° West 231 266 4,900 1,920 Climbing FlightAware
10:36PM 43.6400 -79.7680 288° West 238 274 5,200 1,200 Climbing FlightAware
10:36PM 43.6570 -79.8080 300° West 245 282 5,800 1,380 Climbing FlightAware
10:37PM 43.6730 -79.8430 302° West 252 290 6,500 1,500 Climbing FlightAware
10:37PM 43.6920 -79.8830 303° West 261 300 7,200 900 Climbing FlightAware
10:37PM 43.7010 -79.9050 300° West 257 296 7,200 1,020 Level FlightAware
10:38PM 43.7060 -79.9450 280° West 257 296 7,900 3,000 Climbing FlightAware
10:38PM 43.7090 -79.9930 275° West 252 290 10,000 3,060 Climbing FlightAware
10:39PM 43.7140 -80.0640 276° West 305 351 11,500 2,400 Climbing FlightAware
10:40PM 43.7190 -80.1480 275° West 349 402 13,200 2,220 Climbing FlightAware
10:40PM 43.7250 -80.2570 274° West 405 466 14,700 2,640 Climbing FlightAware
10:41PM 43.7340 -80.3590 277° West 423 487 17,000 3,480 Climbing FlightAware
10:42PM 43.7430 -80.4840 276° West 435 501 19,700 2,880 Climbing FlightAware
10:42PM 43.7370 -80.5980 266° West 457 526 21,100 2,520 Climbing FlightAware
10:43PM 43.7110 -80.7260 254° West 465 535 23,300 2,940 Climbing FlightAware
10:44PM 43.6860 -80.8400 253° West 467 537 25,300 3,300 Climbing FlightAware
10:45PM 43.6600 -80.9600 253° West 453 521 28,000 3,060 Climbing FlightAware
10:45PM 43.6330 -81.0770 252° West 456 525 29,700 2,880 Climbing FlightAware
10:46PM 43.5920 -81.1760 240° Southwest 439 505 31,900 2,940 Climbing FlightAware
10:47PM 43.5330 -81.2690 229° Southwest 427 491 33,900 1,440 Climbing FlightAware
10:47PM 43.4800 -81.3500 228° Southwest 431 496 34,000 60 Climbing FlightAware
10:48PM 43.4200 -81.4400 227° Southwest 435 501 34,000  Level FlightAware
10:49PM 43.3670 -81.5220 228° Southwest 429 494 34,000  Level FlightAware
10:49PM 43.3120 -81.6050 228° Southwest 428 493 34,000  Level FlightAware
10:50PM 43.2520 -81.6950 228° Southwest 431 496 34,000  Level FlightAware
10:51PM 43.1990 -81.7760 228° Southwest 426 490 34,000  Level FlightAware
10:52PM 43.1490 -81.8510 228° Southwest 422 486 34,000  Level FlightAware
10:52PM 43.0880 -81.9420 227° Southwest 421 484 34,000  Level FlightAware
10:53PM 43.0290 -82.0310 228° Southwest 423 487 34,000 60 Level FlightAware
10:54PM 42.9690 -82.1180 227° Southwest 417 480 34,100  Climbing FlightAware
10:54PM 42.9250 -82.1840 228° Southwest 413 475 34,000 -120 Descending FlightAware
10:55PM 42.8670 -82.2700 227° Southwest 413 475 34,000  Level FlightAware
10:56PM 42.8160 -82.3470 228° Southwest 413 475 34,000  Level FlightAware
10:56PM 42.7730 -82.4100 227° Southwest 412 474 34,000 60 Level FlightAware
10:57PM 42.7070 -82.5070 227° Southwest 410 472 34,100  Climbing FlightAware
10:58PM 42.6550 -82.5830 227° Southwest 410 472 34,000 -120 Descending FlightAware
10:59PM 42.6030 -82.6600 227° Southwest 411 473 34,000  Level FlightAware
10:59PM 42.5450 -82.7430 227° Southwest 412 474 34,000  Level FlightAware
11:00PM 42.4990 -82.8110 227° Southwest 411 473 34,000  Level FlightAware
11:01PM 42.4320 -82.9070 227° Southwest 411 473 34,000 60 Level FlightAware
11:01PM 42.3790 -82.9840 227° Southwest 411 473 34,100 60 Climbing FlightAware
11:02PM 42.3180 -83.0720 227° Southwest 410 472 34,100  Level FlightAware
11:03PM 42.2610 -83.1540 227° Southwest 405 466 34,100 -120 Level FlightAware
11:04PM 42.2090 -83.2290 227° Southwest 399 459 34,000 -120 Descending FlightAware
11:04PM 42.1570 -83.3020 226° Southwest 396 456 34,000  Level FlightAware
11:05PM 42.0970 -83.3880 227° Southwest 391 450 34,000  Level FlightAware
11:06PM 42.0540 -83.4480 226° Southwest 391 450 34,000  Level FlightAware
11:07PM 41.9990 -83.5400 231° Southwest 388 447 34,000  Level FlightAware
11:07PM 41.9640 -83.5960 230° Southwest 388 447 34,000  Level FlightAware
11:08PM 41.9050 -83.6950 231° Southwest 390 449 34,000  Level FlightAware
11:09PM 41.8440 -83.7950 231° Southwest 391 450 34,000  Level FlightAware
11:09PM 41.8010 -83.8660 231° Southwest 391 450 34,000  Level FlightAware
11:10PM 41.7530 -83.9450 231° Southwest 391 450 34,000 60 Level FlightAware
11:11PM 41.7030 -84.0260 230° Southwest 391 450 34,100 60 Climbing FlightAware
11:11PM 41.6600 -84.0970 231° Southwest 391 450 34,100 -120 Level FlightAware
11:12PM 41.6050 -84.1870 231° Southwest 389 448 34,000 -120 Descending FlightAware
11:13PM 41.5600 -84.2590 230° Southwest 387 445 34,000  Level FlightAware
11:13PM 41.5140 -84.3350 231° Southwest 387 445 34,000  Level FlightAware
11:14PM 41.4610 -84.4190 230° Southwest 386 444 34,000  Level FlightAware
11:15PM 41.4160 -84.4930 231° Southwest 386 444 34,000  Level FlightAware
11:16PM 41.3670 -84.5700 230° Southwest 389 448 34,000  Level FlightAware
11:16PM 41.3240 -84.6400 231° Southwest 390 449 34,000 60 Level FlightAware
11:17PM 41.2660 -84.7330 230° Southwest 392 451 34,100 60 Climbing FlightAware
11:18PM 41.2190 -84.8070 230° Southwest 393 452 34,100 -120 Level FlightAware
11:18PM 41.1720 -84.8810 230° Southwest 396 456 34,000 -120 Descending FlightAware
11:19PM 41.1180 -84.9670 230° Southwest 399 459 34,000  Level FlightAware
11:20PM 41.0740 -85.0370 230° Southwest 399 459 34,000 60 Level FlightAware
11:20PM 41.0350 -85.0990 230° Southwest 400 460 34,100  Climbing FlightAware
11:21PM 40.9700 -85.1960 228° Southwest 401 461 34,000 -120 Descending FlightAware
11:22PM 40.9110 -85.2590 219° Southwest 400 460 34,000  Level FlightAware
11:23PM 40.8440 -85.3280 218° Southwest 397 457 34,000  Level FlightAware
11:23PM 40.7940 -85.3780 217° Southwest 395 455 34,000  Level FlightAware
11:24PM 40.7310 -85.4440 218° Southwest 393 452 34,000  Level FlightAware
11:25PM 40.6700 -85.5050 217° Southwest 395 455 34,000  Level FlightAware
11:25PM 40.6050 -85.5720 218° Southwest 397 457 34,000 60 Level FlightAware
11:26PM 40.5460 -85.6330 218° Southwest 398 458 34,100 60 Climbing FlightAware
11:27PM 40.4830 -85.6960 217° Southwest 399 459 34,100  Level FlightAware
11:27PM 40.4300 -85.7500 218° Southwest 399 459 34,100  Level FlightAware
11:28PM 40.3740 -85.8070 218° Southwest 399 459 34,100 -120 Level FlightAware
11:29PM 40.3000 -85.8820 218° Southwest 399 459 34,000 -120 Descending FlightAware
11:30PM 40.2440 -85.9380 217° Southwest 397 457 34,000  Level FlightAware
11:30PM 40.1760 -86.0070 218° Southwest 397 457 34,000  Level FlightAware
11:31PM 40.1160 -86.0660 217° Southwest 396 456 34,000  Level FlightAware
11:32PM 40.0570 -86.1260 218° Southwest 396 456 34,000  Level FlightAware
11:32PM 39.9870 -86.1960 217° Southwest 398 458 34,000  Level FlightAware
11:33PM 39.9260 -86.2560 217° Southwest 399 459 34,000  Level FlightAware
11:34PM 39.8660 -86.3160 218° Southwest 401 461 34,000  Level FlightAware
11:35PM 39.8020 -86.3760 216° Southwest 407 468 34,000 60 Level FlightAware
11:35PM 39.7400 -86.4230 210° Southwest 409 471 34,100 60 Climbing FlightAware
11:36PM 39.6620 -86.4830 211° Southwest 411 473 34,100  Level FlightAware
11:37PM 39.5960 -86.5330 210° Southwest 412 474 34,100 -120 Level FlightAware
11:37PM 39.5240 -86.5880 211° Southwest 413 475 34,000 -120 Descending FlightAware
11:38PM 39.4530 -86.6410 210° Southwest 413 475 34,000  Level FlightAware
11:39PM 39.3810 -86.6960 211° Southwest 413 475 34,000  Level FlightAware
11:39PM 39.3140 -86.7450 210° Southwest 414 476 34,000  Level FlightAware
11:40PM 39.2460 -86.7960 210° Southwest 414 476 34,000  Level FlightAware
11:41PM 39.1730 -86.8510 210° Southwest 414 476 34,000  Level FlightAware
11:42PM 39.1080 -86.8990 210° Southwest 414 476 34,000  Level FlightAware
11:42PM 39.0420 -86.9480 210° Southwest 413 475 34,000  Level FlightAware
11:43PM 38.9660 -87.0050 210° Southwest 412 474 34,000  Level FlightAware
11:44PM 38.9000 -87.0540 210° Southwest 413 475 34,000  Level FlightAware
11:44PM 38.8340 -87.1030 210° Southwest 412 474 34,000  Level FlightAware
11:45PM 38.7610 -87.1570 210° Southwest 412 474 34,000  Level FlightAware
11:46PM 38.6940 -87.2070 210° Southwest 411 473 34,000  Level FlightAware
11:46PM 38.6190 -87.2610 209° Southwest 411 473 34,000  Level FlightAware
11:47PM 38.5520 -87.3100 210° Southwest 410 472 34,000  Level FlightAware
11:48PM 38.4790 -87.3640 210° Southwest 410 472 34,000  Level FlightAware
11:49PM 38.4100 -87.4130 209° Southwest 410 472 34,000  Level FlightAware
11:49PM 38.3450 -87.4610 210° Southwest 410 472 34,000  Level FlightAware
11:50PM 38.2730 -87.5140 210° Southwest 408 470 34,000  Level FlightAware
11:51PM 38.2050 -87.5630 210° Southwest 408 470 34,000  Level FlightAware
11:51PM 38.1410 -87.6090 209° Southwest 407 468 34,000  Level FlightAware
11:52PM 38.0670 -87.6620 209° Southwest 404 465 34,000  Level FlightAware
11:53PM 38.0030 -87.7080 210° Southwest 405 466 34,000  Level FlightAware
11:53PM 37.9280 -87.7620 210° Southwest 408 470 34,000  Level FlightAware
11:54PM 37.8600 -87.8040 206° Southwest 410 472 34,000 60 Level FlightAware
11:55PM 37.7890 -87.8470 206° Southwest 409 471 34,100 60 Climbing FlightAware
11:56PM 37.7130 -87.8940 206° Southwest 407 468 34,100 -120 Level FlightAware
11:56PM 37.6480 -87.9330 205° Southwest 406 467 34,000 -120 Descending FlightAware
11:57PM 37.5790 -87.9760 206° Southwest 405 466 34,000  Level FlightAware
11:58PM 37.5030 -88.0220 206° Southwest 404 465 34,000  Level FlightAware
11:58PM 37.4350 -88.0630 206° Southwest 407 468 34,000  Level FlightAware
11:59PM 37.3670 -88.1040 206° Southwest 409 471 34,000 60 Level FlightAware
12:00AM 37.2890 -88.1510 206° Southwest 412 474 34,100 60 Climbing FlightAware
12:00AM 37.2240 -88.1900 206° Southwest 410 472 34,100 -120 Level FlightAware
12:01AM 37.1450 -88.2380 206° Southwest 402 463 34,000 -120 Descending FlightAware
12:02AM 37.0780 -88.2780 205° Southwest 398 458 34,000  Level FlightAware
12:03AM 37.0050 -88.3220 206° Southwest 394 453 34,000  Level FlightAware
12:03AM 36.9200 -88.3720 205° Southwest 394 453 34,000  Level FlightAware
12:04AM 36.8560 -88.4110 206° Southwest 399 459 34,000  Level FlightAware
12:05AM 36.7890 -88.4490 204° Southwest 399 459 34,000  Level FlightAware
12:05AM 36.7320 -88.4830 206° Southwest 399 459 34,000  Level FlightAware
12:06AM 36.6750 -88.5160 205° Southwest 399 459 34,000  Level FlightAware
12:07AM 36.6040 -88.5570 205° Southwest 399 459 34,000  Level FlightAware
12:08AM 36.5470 -88.5900 205° Southwest 399 459 34,000  Level FlightAware
12:08AM 36.4900 -88.6230 205° Southwest 399 459 34,000  Level FlightAware
12:09AM 36.4330 -88.6560 205° Southwest 399 459 34,000  Level FlightAware
12:10AM 36.3620 -88.6970 205° Southwest 399 459 34,000  Level FlightAware
12:10AM 36.3050 -88.7300 205° Southwest 399 459 34,000  Level FlightAware
12:11AM 36.2480 -88.7630 205° Southwest 399 459 34,000  Level FlightAware
12:12AM 36.1920 -88.7960 205° Southwest 399 459 34,000  Level FlightAware
12:13AM 36.1200 -88.8370 205° Southwest 399 459 34,000  Level FlightAware
12:13AM 36.0640 -88.8700 205° Southwest 399 459 34,000  Level FlightAware
12:14AM 36.0070 -88.9030 205° Southwest 399 459 34,000 -6,540 Level FlightAware
12:15AM 35.8094 -89.0208 205° Southwest 393 452 25,100 -6,660 Descending Memphis Center
12:16AM 35.7203 -89.0811 209° Southwest 380 437 22,700 -2,280 Descending Memphis Center
12:17AM 35.6503 -89.1742 227° Southwest 351 404 20,600 -2,160 Descending Memphis Center
12:18AM 35.5864 -89.2567 226° Southwest 351 404 18,400 -2,160 Descending Memphis Center
12:19AM 35.5206 -89.3417 226° Southwest 351 404 16,300 -1,620 Descending Memphis Center
12:20AM 35.4564 -89.4242 226° Southwest 346 398 15,200 -1,020 Descending Memphis Center
12:21AM 35.3903 -89.5064 225° Southwest 338 389 14,300 -900 Descending Memphis Center
12:22AM 35.3344 -89.5808 227° Southwest 324 373 13,400 -900 Descending Memphis Center
12:23AM 35.2828 -89.6500 228° Southwest 297 342 12,600 -780 Descending Memphis Center
12:24AM 35.2289 -89.7164 225° Southwest 282 325 11,900 -720 Descending Memphis Center
12:25AM 35.1792 -89.7778 225° Southwest 264 304 11,200 -900 Descending Memphis Center
12:26AM 35.1378 -89.8339 228° Southwest 240 276 10,100 -1,020 Descending Memphis Center
12:27AM 35.0772 -89.8675 204° Southwest 233 268 9,200 -1,200 Descending Memphis Center
12:28AM 35.0042 -89.8653 179° South 249 287 7,700 -1,260 Descending Memphis Center
12:29AM 34.9397 -89.8656 180° South 260 299 6,700 -1,380 Descending Memphis Center
12:30AM 34.8667 -89.8661 180° South 253 291 5,000 -1,500 Descending Memphis Center
12:31AM 34.8356 -89.9117 230° Southwest 204 235 3,800 -1,200 Descending Memphis Center
12:32AM 34.9000 -89.9500 334° Northwest 182 209 2,100 -840 Descending KMEM
12:33AM 34.9500 -89.9667 345° North 175 201 1,900 -540 Descending KMEM
12:34AM 34.9833 -89.9667 360° North 141 162 1,100 -840 Descending KMEM
12:36AM 35.0333 -89.9667 345° North  Level FlightAware Approximate
12:43AM 35.0424 -89.9767 345° North  Level Estimated